Nearby METAR Reports

 

KPMP - Pompano Beach, Florida, USA
Distance from station: NNW 3mi, 5km
Updated: 11/19/2017 4:53am
Clear
Clear
 Wind from NW
Wind: NW 6 mph , 9 km/h
Temperature: 66°F , 19°C
Dew Point: 64°F , 18°C
Humidity: 94%
Barometer: 29.94 inHg , 1013.9 hPa
Clouds: Clear
Visibility: 10 miles , 16 km
2017/11/19 09:53 KPMP 190953Z AUTO 31005KT 10SM CLR 19/18 A2994 RMK AO2 SLP139 T01890178 $
KFXE - Ft Lauderd/Exec, Florida, USA
Distance from station: W 6mi, 9km
Updated: 11/19/2017 4:53am
Clear
Clear
 Wind from WNW
Wind: WNW 3 mph , 6 km/h
Temperature: 64°F , 18°C
Dew Point: 63°F , 17°C
Humidity: 94%
Barometer: 29.94 inHg , 1013.9 hPa
Clouds: Clear
Visibility: 10 miles , 16 km
2017/11/19 09:53 KFXE 190953Z 29003KT 10SM CLR 18/17 A2994 RMK AO2 SLP141 T01780172
 
KFLL - Ft Lauderd/Holly, Florida, USA
Distance from station: SSW 11mi, 17km
Updated: 11/19/2017 4:53am
Clear
Clear
 Wind from NW
Wind: NW 6 mph , 9 km/h
Temperature: 66°F , 19°C
Dew Point: 64°F , 18°C
Humidity: 94%
Barometer: 29.93 inHg , 1013.5 hPa
Clouds: Clear
Visibility: 10 miles , 16 km
2017/11/19 09:53 KFLL 190953Z 31005KT 10SM CLR 19/18 A2993 RMK AO2 SLP135 T01940183
KBCT - Boca Raton, Florida, USA
Distance from station: N 12mi, 19km
Updated: 11/18/2017 10:47pm
NOT Current
Mostly cloudy
Mostly cloudy
 Wind from calm
Wind: Calm
Temperature: 68°F , 20°C
Dew Point: 66°F , 19°C
Humidity: 94%
Barometer: 29.97 inHg , 1014.9 hPa
Clouds: Mostly cloudy
Visibility: 10 miles , 16 km
Cloud details: Mostly cloudy 3600 ft
2017/11/19 03:47 KBCT 190347Z 00000KT 10SM BKN036 20/19 A2997
 
KHWO - Hollywood, Florida, USA
Distance from station: SSW 17mi, 27km
Updated: 11/19/2017 4:53am
Clear
Clear
 Wind from WNW
Wind: WNW 3 mph , 6 km/h
Temperature: 66°F , 19°C
Dew Point: 63°F , 17°C
Humidity: 88%
Barometer: 29.95 inHg , 1014.2 hPa
Clouds: Clear
Visibility: 10 miles , 16 km
2017/11/19 09:53 KHWO 190953Z AUTO 30003KT 10SM CLR 19/17 A2995 RMK AO2 SLP143 T01890167
KOPF - Miami/Opa Locka, Florida, USA
Distance from station: SSW 24mi, 38km
Updated: 11/19/2017 4:53am
Clear
Clear
 Wind from calm
Wind: Calm
Temperature: 66°F , 19°C
Dew Point: 63°F , 17°C
Humidity: 88%
Barometer: 29.95 inHg , 1014.2 hPa
Clouds: Clear
Visibility: 10 miles , 16 km
2017/11/19 09:53 KOPF 190953Z AUTO 00000KT 10SM CLR 19/17 A2995 RMK AO2 SLP141 T01890172
 
KMIA - Miami, Florida, USA
Distance from station: SSW 31mi, 50km
Updated: 11/19/2017 4:53am
Clear
Clear
 Wind from calm
Wind: Calm
Temperature: 70°F , 21°C
Dew Point: 63°F , 17°C
Humidity: 78%
Barometer: 29.94 inHg , 1013.9 hPa
Clouds: Clear
Visibility: 10 miles , 16 km
2017/11/19 09:53 KMIA 190953Z 00000KT 10SM CLR 21/17 A2994 RMK AO2 SLP139 T02110172
KPBI - West Palm Beach, Florida, USA
Distance from station: N 33mi, 52km
Updated: 11/19/2017 4:53am
Clear
Clear
 Wind from WNW
Wind: WNW 3 mph , 6 km/h
Temperature: 68°F , 20°C
Dew Point: 61°F , 16°C
Humidity: 78%
Barometer: 29.94 inHg , 1013.9 hPa
Clouds: Clear
Visibility: 10 miles , 16 km
2017/11/19 09:53 KPBI 190953Z 30003KT 10SM CLR 20/16 A2994 RMK AO2 SLP139 T02000161 $
 
KTMB - Miami/Tamiami, Florida, USA
Distance from station: SSW 44mi, 71km
Updated: 11/19/2017 4:53am
Clear
Clear
 Wind from NNW
Wind: NNW 3 mph , 6 km/h
Temperature: 64°F , 18°C
Dew Point: 64°F , 18°C
Humidity: 100%
Barometer: 29.94 inHg , 1013.9 hPa
Clouds: Clear
Visibility: 10 miles , 16 km
2017/11/19 09:53 KTMB 190953Z 34003KT 10SM CLR 18/18 A2994 RMK AO2 SLP139 T01780178